Time;durP1;ratioP1;P1;durP2;ratioP2;P2;SDS_P1;SDS_P2;PMS_P1;PMS_P2;Temp;Humidity;BMP_temperature;BMP_pressure;BME280_temperature;BME280_humidity;BME280_pressure;Samples;Min_cycle;Max_cycle;Signal;HPM_P1;HPM_P2
2023/06/08 00:00:00;;;;;;;4.05;2.35;;;22.20;50.00;;;;;;5094293;28;20035;-76
2023/06/08 00:02:28;;;;;;;2.88;2.15;;;22.20;50.10;;;;;;5060551;28;20058;-76
2023/06/08 00:04:54;;;;;;;4.10;2.40;;;22.20;50.10;;;;;;5061106;28;20028;-75
2023/06/08 00:07:21;;;;;;;4.35;2.60;;;22.10;50.10;;;;;;5077620;28;20358;-75
2023/06/08 00:09:47;;;;;;;5.50;2.22;;;22.10;50.10;;;;;;5077574;28;20093;-76
2023/06/08 00:12:13;;;;;;;4.78;2.30;;;22.00;50.10;;;;;;5077249;28;20514;-75
2023/06/08 00:14:39;;;;;;;3.17;2.05;;;22.00;50.20;;;;;;5077552;28;20028;-75
2023/06/08 00:17:05;;;;;;;3.53;2.28;;;22.00;50.30;;;;;;5077190;28;20032;-75
2023/06/08 00:19:33;;;;;;;3.35;2.30;;;21.90;50.30;;;;;;5094559;28;20036;-76
2023/06/08 00:22:04;;;;;;;4.28;2.30;;;21.90;50.30;;;;;;5095640;28;20029;-76
2023/06/08 00:24:40;;;;;;;4.30;2.40;;;21.80;50.30;;;;;;5061633;28;20074;-76
2023/06/08 00:27:06;;;;;;;2.88;2.03;;;21.80;50.40;;;;;;5078059;28;20028;-76
2023/06/08 00:29:33;;;;;;;3.40;2.22;;;21.80;50.40;;;;;;5093714;28;20031;-75
2023/06/08 00:31:59;;;;;;;3.25;2.28;;;21.80;50.50;;;;;;5076259;28;20040;-75
2023/06/08 00:34:26;;;;;;;4.85;2.38;;;21.70;50.50;;;;;;5094433;28;20122;-76
2023/06/08 00:36:55;;;;;;;5.35;2.60;;;21.70;50.50;;;;;;5095213;28;20040;-76
2023/06/08 00:39:21;;;;;;;4.70;2.63;;;21.60;50.60;;;;;;5076929;28;20043;-76
2023/06/08 00:41:47;;;;;;;4.70;2.47;;;21.60;50.60;;;;;;5093638;28;20028;-76
2023/06/08 00:44:13;;;;;;;3.88;2.17;;;21.60;50.70;;;;;;5094845;28;20357;-75
2023/06/08 00:46:39;;;;;;;3.58;2.28;;;21.50;50.70;;;;;;5094782;28;20111;-76
2023/06/08 00:49:08;;;;;;;3.75;2.47;;;21.50;50.70;;;;;;5076790;28;20040;-76
2023/06/08 00:51:38;;;;;;;2.95;2.10;;;21.50;50.80;;;;;;5076527;28;20055;-75
2023/06/08 00:54:05;;;;;;;3.67;2.22;;;21.40;50.80;;;;;;5076561;28;20020;-75
2023/06/08 00:56:34;;;;;;;5.18;2.88;;;21.40;50.80;;;;;;5095035;28;20038;-76
2023/06/08 00:59:02;;;;;;;3.78;2.53;;;21.40;50.90;;;;;;5060108;28;20475;-75
2023/06/08 01:01:35;;;;;;;4.07;2.42;;;21.30;50.80;;;;;;5092873;28;20183;-76
2023/06/08 01:04:06;;;;;;;3.97;2.17;;;21.30;50.90;;;;;;5092881;28;20063;-76
2023/06/08 01:06:37;;;;;;;3.28;2.17;;;21.30;51.00;;;;;;5093044;28;20028;-76
2023/06/08 01:09:42;;;;;;;2.70;2.27;;;21.20;51.00;;;;;;5076516;28;20032;-75
2023/06/08 01:12:18;;;;;;;3.28;2.35;;;21.20;51.10;;;;;;5090813;28;20063;-75
2023/06/08 01:14:54;;;;;;;4.00;2.13;;;21.10;51.10;;;;;;5093083;28;20024;-76
2023/06/08 01:17:23;;;;;;;;;;;21.10;51.10;;;;;;5076827;28;20031;-75
2023/06/08 01:20:18;;;;;;;3.42;2.03;;;21.00;51.00;;;;;;5092870;28;19912;-75
2023/06/08 01:23:22;;;;;;;3.33;2.08;;;21.00;51.10;;;;;;5074327;28;20035;-75
2023/06/08 01:25:50;;;;;;;2.50;1.90;;;20.90;51.10;;;;;;5076642;28;20032;-75
2023/06/08 01:28:16;;;;;;;4.20;2.28;;;20.90;51.20;;;;;;5092818;28;20052;-76
2023/06/08 01:30:44;;;;;;;5.25;2.47;;;20.90;51.30;;;;;;5092327;28;20032;-76
2023/06/08 01:33:14;;;;;;;4.68;2.60;;;20.80;51.30;;;;;;5092599;28;20028;-76
2023/06/08 01:35:41;;;;;;;4.65;2.53;;;20.80;51.40;;;;;;5075599;28;20085;-76
2023/06/08 01:38:31;;;;;;;3.47;2.30;;;20.80;51.30;;;;;;5092490;28;20131;-76
2023/06/08 01:41:05;;;;;;;4.07;2.45;;;20.80;51.40;;;;;;5093249;28;20445;-76
2023/06/08 01:43:32;;;;;;;;;;;20.70;51.40;;;;;;5092967;28;20484;-77
2023/06/08 01:46:02;;;;;;;3.47;2.15;;;20.60;51.20;;;;;;5092143;28;19908;-76
2023/06/08 01:48:30;;;;;;;3.92;2.45;;;20.60;51.30;;;;;;5094188;28;20077;-76
2023/06/08 01:50:57;;;;;;;4.22;2.28;;;20.60;51.40;;;;;;5093869;28;20448;-76
2023/06/08 01:53:23;;;;;;;3.80;2.38;;;20.50;52.10;;;;;;5093556;28;20031;-76
2023/06/08 01:55:50;;;;;;;4.57;2.60;;;20.50;51.50;;;;;;5093554;28;20032;-76
2023/06/08 01:58:15;;;;;;;3.88;2.38;;;20.50;51.60;;;;;;5058650;28;20430;-76
2023/06/08 02:00:41;;;;;;;4.53;2.50;;;20.50;51.60;;;;;;5041989;28;20123;-76
2023/06/08 02:03:07;;;;;;;3.63;2.40;;;20.50;51.60;;;;;;5058735;28;20024;-76
2023/06/08 02:05:33;;;;;;;4.80;2.60;;;20.40;51.60;;;;;;5093454;28;20389;-76
2023/06/08 02:07:59;;;;;;;3.63;2.40;;;20.40;51.70;;;;;;5092326;28;20169;-76
2023/06/08 02:10:25;;;;;;;4.25;2.42;;;20.40;51.70;;;;;;5075739;28;20474;-76
2023/06/08 02:12:51;;;;;;;3.65;2.38;;;20.30;51.70;;;;;;5092123;28;20060;-76
2023/06/08 02:15:17;;;;;;;3.38;2.42;;;20.30;51.80;;;;;;5075294;28;20032;-77
2023/06/08 02:17:43;;;;;;;4.03;2.50;;;20.20;51.80;;;;;;5092103;28;20050;-76
2023/06/08 02:20:09;;;;;;;4.13;2.47;;;20.20;51.90;;;;;;5093330;28;20105;-76
2023/06/08 02:22:38;;;;;;;4.30;2.65;;;20.20;51.90;;;;;;5075084;28;20059;-76
2023/06/08 02:25:09;;;;;;;4.30;2.60;;;20.10;52.00;;;;;;5058563;28;20028;-76
2023/06/08 02:27:38;;;;;;;4.57;2.65;;;20.10;52.00;;;;;;5092177;28;20107;-77
2023/06/08 02:30:09;;;;;;;4.55;2.50;;;20.10;52.10;;;;;;5075332;28;20086;-76
2023/06/08 02:32:34;;;;;;;4.88;2.83;;;20.00;52.20;;;;;;5091858;28;20160;-76
2023/06/08 02:35:01;;;;;;;4.22;2.90;;;20.00;52.20;;;;;;5075700;28;20024;-76
2023/06/08 02:37:27;;;;;;;3.90;2.58;;;20.00;52.20;;;;;;5074738;28;20052;-77
2023/06/08 02:39:53;;;;;;;3.90;2.60;;;20.00;52.20;;;;;;5092081;28;20040;-76
2023/06/08 02:42:19;;;;;;;4.57;2.55;;;19.90;52.20;;;;;;5075113;28;20040;-76
2023/06/08 02:44:46;;;;;;;5.85;3.05;;;19.90;52.20;;;;;;5091738;28;20103;-76
2023/06/08 02:47:16;;;;;;;3.78;2.55;;;19.90;52.30;;;;;;5091364;28;20035;-77
2023/06/08 02:49:42;;;;;;;4.13;2.85;;;19.80;52.30;;;;;;5058516;28;20204;-75
2023/06/08 02:52:08;;;;;;;4.40;2.70;;;19.80;52.30;;;;;;5075050;28;20064;-77
2023/06/08 02:54:34;;;;;;;4.72;2.72;;;19.80;52.30;;;;;;5075936;28;20028;-76
2023/06/08 02:57:00;;;;;;;5.15;2.85;;;19.80;52.40;;;;;;5078988;28;20487;-76
2023/06/08 02:59:29;;;;;;;4.05;2.42;;;19.70;52.40;;;;;;5078829;28;20040;-76
2023/06/08 03:01:56;;;;;;;3.90;2.42;;;19.70;52.40;;;;;;5096176;28;20081;-77
2023/06/08 03:04:29;;;;;;;4.28;2.65;;;19.60;52.50;;;;;;5080324;28;20497;-77
2023/06/08 03:06:59;;;;;;;4.75;3.08;;;19.60;52.50;;;;;;5063333;28;20063;-76
2023/06/08 03:09:30;;;;;;;4.40;2.65;;;19.60;52.50;;;;;;5079262;28;20031;-76
2023/06/08 03:12:00;;;;;;;3.67;2.53;;;19.50;52.50;;;;;;5079399;28;20040;-76
2023/06/08 03:14:31;;;;;;;4.20;2.70;;;19.50;52.60;;;;;;5079059;28;20032;-76
2023/06/08 03:17:02;;;;;;;4.25;2.50;;;19.50;53.20;;;;;;5062935;28;20088;-76
2023/06/08 03:19:30;;;;;;;4.00;2.50;;;19.50;52.70;;;;;;5096419;28;20028;-77
2023/06/08 03:22:02;;;;;;;3.45;2.25;;;19.40;52.70;;;;;;5096023;28;20032;-76
2023/06/08 03:24:32;;;;;;;4.20;2.80;;;19.40;52.80;;;;;;5079337;28;20032;-77
2023/06/08 03:27:03;;;;;;;4.38;2.58;;;19.40;52.80;;;;;;5095092;28;20036;-76
2023/06/08 03:29:30;;;;;;;5.45;2.75;;;19.30;52.80;;;;;;5095855;28;20364;-76
2023/06/08 03:31:58;;;;;;;4.70;2.85;;;19.30;52.80;;;;;;5078530;28;20060;-75
2023/06/08 03:34:26;;;;;;;4.45;2.60;;;19.30;52.80;;;;;;5062579;28;20028;-76
2023/06/08 03:36:55;;;;;;;4.45;2.72;;;19.20;52.80;;;;;;5078736;28;20032;-76
2023/06/08 03:39:24;;;;;;;5.57;2.80;;;19.20;52.80;;;;;;5061463;28;20138;-76
2023/06/08 03:41:50;;;;;;;4.78;3.00;;;19.20;52.80;;;;;;5061417;28;20032;-77
2023/06/08 03:44:18;;;;;;;4.68;2.60;;;19.20;52.90;;;;;;5078534;28;20358;-76
2023/06/08 03:46:48;;;;;;;3.97;2.80;;;19.20;52.90;;;;;;5077941;28;20042;-76
2023/06/08 03:49:14;;;;;;;3.97;2.72;;;19.10;53.00;;;;;;5095334;28;20123;-76
2023/06/08 03:51:40;;;;;;;4.57;3.00;;;19.10;53.00;;;;;;5061119;28;20560;-76
2023/06/08 03:54:06;;;;;;;3.53;2.80;;;19.10;53.10;;;;;;5061479;28;20111;-76
2023/06/08 03:56:32;;;;;;;4.90;3.03;;;19.00;53.10;;;;;;5061119;28;20036;-76
2023/06/08 03:59:01;;;;;;;5.13;3.03;;;19.00;53.10;;;;;;5062158;28;20106;-75
2023/06/08 04:01:28;;;;;;;5.03;2.97;;;19.00;53.10;;;;;;5094854;28;20077;-76
2023/06/08 04:03:54;;;;;;;6.80;3.47;;;19.00;53.10;;;;;;5077862;28;20031;-76
2023/06/08 04:06:20;;;;;;;4.13;2.78;;;18.90;53.10;;;;;;5094268;28;20111;-76
2023/06/08 04:08:46;;;;;;;4.25;2.95;;;18.90;53.20;;;;;;5094197;28;20036;-76
2023/06/08 04:11:12;;;;;;;5.13;2.90;;;18.90;53.20;;;;;;5094171;28;20115;-76
2023/06/08 04:13:42;;;;;;;5.35;3.40;;;18.90;53.30;;;;;;5094164;28;20127;-76
2023/06/08 04:16:12;;;;;;;4.57;3.33;;;18.90;53.30;;;;;;5078798;28;20379;-76
2023/06/08 04:18:43;;;;;;;5.20;3.08;;;18.80;53.30;;;;;;5078720;28;20131;-77
2023/06/08 04:21:12;;;;;;;4.32;2.80;;;18.80;53.30;;;;;;5078371;28;20024;-77
2023/06/08 04:23:38;;;;;;;4.38;2.67;;;18.70;53.30;;;;;;5044205;28;20173;-76
2023/06/08 04:26:07;;;;;;;5.30;3.40;;;18.70;53.40;;;;;;5078201;28;20028;-76
2023/06/08 04:28:34;;;;;;;5.95;3.15;;;18.70;53.40;;;;;;5060979;28;20496;-77
2023/06/08 04:31:01;;;;;;;4.80;3.50;;;18.70;53.50;;;;;;5060607;28;20024;-76
2023/06/08 04:33:31;;;;;;;5.82;3.58;;;18.70;53.50;;;;;;5077446;28;20032;-76
2023/06/08 04:35:59;;;;;;;4.90;3.20;;;18.70;53.60;;;;;;5093908;28;20040;-77
2023/06/08 04:38:27;;;;;;;4.20;3.17;;;18.60;53.50;;;;;;5093572;28;20483;-76
2023/06/08 04:40:55;;;;;;;4.78;2.88;;;18.60;53.50;;;;;;5077084;28;20032;-76
2023/06/08 04:43:30;;;;;;;4.20;3.13;;;18.60;53.60;;;;;;5077903;28;20058;-76
2023/06/08 04:45:59;;;;;;;4.93;3.33;;;18.60;53.60;;;;;;5061509;28;20028;-76
2023/06/08 04:48:27;;;;;;;4.85;3.30;;;18.50;53.60;;;;;;5077120;28;20028;-76
2023/06/08 04:51:02;;;;;;;5.65;3.35;;;18.50;53.70;;;;;;5076514;28;20040;-75
2023/06/08 04:53:30;;;;;;;4.13;3.10;;;18.50;53.70;;;;;;5093819;28;20111;-77
2023/06/08 04:55:59;;;;;;;4.35;3.33;;;18.50;53.70;;;;;;5076917;28;20036;-76
2023/06/08 04:58:26;;;;;;;5.00;3.47;;;18.50;53.80;;;;;;5076996;28;20492;-76
2023/06/08 05:00:52;;;;;;;4.53;3.28;;;18.40;53.80;;;;;;5093177;28;20032;-75
2023/06/08 05:03:20;;;;;;;4.07;3.22;;;18.40;53.80;;;;;;5076741;28;20040;-76
2023/06/08 05:05:46;;;;;;;4.22;3.42;;;18.40;53.90;;;;;;5093282;28;20118;-76
2023/06/08 05:08:12;;;;;;;4.80;3.20;;;18.40;53.90;;;;;;5077254;28;20035;-75
2023/06/08 05:10:38;;;;;;;4.40;3.28;;;18.40;53.90;;;;;;5093912;28;20373;-76
2023/06/08 05:13:04;;;;;;;4.85;3.25;;;18.40;53.90;;;;;;5076257;28;20020;-76
2023/06/08 05:15:31;;;;;;;5.82;3.47;;;18.40;54.00;;;;;;5092780;28;20028;-75
2023/06/08 05:17:57;;;;;;;4.97;3.38;;;18.40;54.00;;;;;;5092674;28;20063;-76
2023/06/08 05:20:24;;;;;;;4.45;3.13;;;18.40;54.10;;;;;;5059624;28;20029;-75
2023/06/08 05:22:50;;;;;;;4.82;3.40;;;18.40;54.10;;;;;;5076009;28;20024;-74
2023/06/08 05:25:16;;;;;;;4.72;3.28;;;18.30;54.10;;;;;;5092803;28;20054;-75
2023/06/08 05:27:42;;;;;;;4.18;3.38;;;18.30;54.10;;;;;;5075656;28;20387;-75
2023/06/08 05:30:08;;;;;;;4.72;3.13;;;18.30;54.10;;;;;;5076179;28;20020;-76
2023/06/08 05:32:34;;;;;;;5.20;3.53;;;18.30;54.10;;;;;;5094025;28;20077;-75
2023/06/08 05:35:00;;;;;;;5.03;3.47;;;18.30;54.20;;;;;;5092746;28;20077;-75
2023/06/08 05:37:26;;;;;;;6.20;3.67;;;18.30;54.20;;;;;;5092769;28;20024;-75
2023/06/08 05:39:52;;;;;;;5.53;3.63;;;18.30;54.20;;;;;;5093334;28;20106;-74
2023/06/08 05:42:19;;;;;;;5.72;3.35;;;18.30;54.20;;;;;;5076361;28;20036;-75
2023/06/08 05:44:45;;;;;;;4.95;3.33;;;18.30;54.20;;;;;;5077447;28;20028;-75
2023/06/08 05:47:10;;;;;;;4.60;3.50;;;18.30;54.20;;;;;;5079086;28;20030;-75
2023/06/08 05:49:36;;;;;;;5.68;3.72;;;18.30;54.30;;;;;;5084266;28;20105;-75
2023/06/08 05:52:02;;;;;;;5.43;3.15;;;18.30;54.30;;;;;;5103214;28;20483;-75
2023/06/08 05:54:28;;;;;;;4.28;3.10;;;18.30;54.30;;;;;;5066949;28;20028;-75
2023/06/08 05:56:53;;;;;;;5.00;3.80;;;18.30;54.30;;;;;;5097539;28;20394;-75
2023/06/08 05:59:19;;;;;;;5.60;3.60;;;18.30;54.30;;;;;;5076859;28;20047;-75
2023/06/08 06:01:45;;;;;;;5.15;3.40;;;18.30;54.30;;;;;;5092818;28;20032;-77
2023/06/08 06:04:11;;;;;;;4.97;3.50;;;18.30;54.30;;;;;;5092329;28;20537;-75
2023/06/08 06:06:37;;;;;;;4.22;3.35;;;18.30;54.40;;;;;;5075524;28;20499;-74
2023/06/08 06:09:03;;;;;;;4.55;3.45;;;18.30;54.40;;;;;;5093314;28;20044;-77
2023/06/08 06:11:30;;;;;;;4.22;2.97;;;18.30;54.50;;;;;;5075591;28;20123;-76
2023/06/08 06:13:58;;;;;;;4.70;3.20;;;18.30;54.50;;;;;;5092591;28;20043;-75
2023/06/08 06:16:24;;;;;;;4.78;3.45;;;18.30;54.50;;;;;;5092005;28;20075;-75
2023/06/08 06:18:50;;;;;;;5.82;3.85;;;18.30;54.50;;;;;;5093644;28;20092;-76
2023/06/08 06:21:16;;;;;;;5.20;3.30;;;18.30;54.50;;;;;;5058995;28;20028;-75
2023/06/08 06:23:44;;;;;;;4.40;3.28;;;18.30;54.50;;;;;;5092135;28;20054;-76
2023/06/08 06:26:11;;;;;;;4.80;3.45;;;18.30;54.50;;;;;;5093334;28;20085;-75
2023/06/08 06:28:38;;;;;;;5.80;3.72;;;18.40;54.60;;;;;;5075498;28;20480;-75
2023/06/08 06:31:05;;;;;;;4.63;3.40;;;18.40;54.60;;;;;;5096801;28;20039;-76
2023/06/08 06:33:30;;;;;;;4.65;3.33;;;18.40;54.60;;;;;;5097876;28;20099;-75
2023/06/08 06:35:56;;;;;;;4.53;3.25;;;18.40;54.60;;;;;;5097042;28;20434;-75
2023/06/08 06:38:22;;;;;;;4.93;3.58;;;18.40;54.60;;;;;;5095829;28;20052;-76
2023/06/08 06:40:52;;;;;;;4.50;3.30;;;18.40;54.60;;;;;;5062535;28;20407;-75
2023/06/08 06:43:19;;;;;;;6.03;3.53;;;18.40;54.60;;;;;;5080129;28;20098;-75
2023/06/08 06:45:51;;;;;;;4.65;3.28;;;18.40;54.60;;;;;;5096146;28;20020;-75
2023/06/08 06:48:20;;;;;;;4.05;2.85;;;18.40;54.60;;;;;;5079140;28;20054;-75
2023/06/08 06:50:47;;;;;;;4.25;3.20;;;18.40;54.60;;;;;;5079690;28;20052;-75
2023/06/08 06:53:13;;;;;;;4.70;3.30;;;18.40;54.70;;;;;;5096996;28;20024;-75
2023/06/08 06:55:40;;;;;;;5.90;3.70;;;18.50;54.70;;;;;;5096053;28;20066;-75
2023/06/08 06:58:06;;;;;;;4.75;3.20;;;18.50;54.70;;;;;;5095623;28;20548;-75
2023/06/08 07:00:37;;;;;;;5.10;3.47;;;18.50;54.70;;;;;;5078706;28;20111;-75
2023/06/08 07:03:04;;;;;;;4.60;3.25;;;18.50;54.70;;;;;;5095734;28;20534;-75
2023/06/08 07:05:31;;;;;;;4.43;3.00;;;18.50;54.70;;;;;;5095476;28;20062;-75
2023/06/08 07:07:56;;;;;;;5.80;3.60;;;18.50;54.70;;;;;;5096585;28;20036;-75
2023/06/08 07:10:22;;;;;;;5.95;4.00;;;18.60;54.70;;;;;;5096417;28;20462;-75
2023/06/08 07:12:48;;;;;;;3.95;3.03;;;18.60;54.70;;;;;;5078629;28;20077;-75
2023/06/08 07:15:13;;;;;;;4.60;3.42;;;18.60;54.80;;;;;;5095247;28;20153;-75
2023/06/08 07:17:40;;;;;;;6.65;3.95;;;18.60;54.80;;;;;;5078545;28;20511;-75
2023/06/08 07:20:07;;;;;;;5.75;3.38;;;18.60;54.80;;;;;;5078572;28;20040;-75
2023/06/08 07:22:33;;;;;;;4.97;3.33;;;18.70;54.90;;;;;;5078342;28;20483;-75
2023/06/08 07:24:59;;;;;;;5.35;3.53;;;18.70;54.80;;;;;;5095512;28;20040;-75
2023/06/08 07:27:25;;;;;;;5.05;3.35;;;18.70;54.80;;;;;;5078430;28;20032;-75
2023/06/08 07:29:52;;;;;;;4.68;3.42;;;18.80;54.90;;;;;;5095182;28;20028;-74
2023/06/08 07:32:18;;;;;;;6.00;3.28;;;18.80;54.80;;;;;;5096652;28;20032;-75
2023/06/08 07:34:43;;;;;;;4.70;3.35;;;18.80;54.80;;;;;;5061545;28;20032;-75
2023/06/08 07:37:09;;;;;;;4.15;2.88;;;18.80;54.80;;;;;;5061560;28;20055;-75
2023/06/08 07:39:35;;;;;;;6.10;3.55;;;18.90;54.80;;;;;;5061128;28;20054;-75
2023/06/08 07:42:03;;;;;;;4.10;3.13;;;18.90;54.80;;;;;;5060919;28;20396;-75
2023/06/08 07:44:29;;;;;;;5.10;3.60;;;18.90;54.80;;;;;;5078220;28;20131;-75
2023/06/08 07:46:55;;;;;;;4.80;3.33;;;19.00;54.80;;;;;;5077771;28;20107;-75
2023/06/08 07:49:21;;;;;;;4.75;3.38;;;19.00;54.80;;;;;;5095660;28;20421;-75
2023/06/08 07:51:46;;;;;;;5.10;3.60;;;19.00;54.80;;;;;;5095569;28;20028;-75
2023/06/08 07:54:13;;;;;;;5.18;3.60;;;19.10;54.80;;;;;;5094475;28;20023;-75
2023/06/08 07:56:39;;;;;;;5.38;3.75;;;19.10;54.80;;;;;;5077971;28;20381;-75
2023/06/08 07:59:05;;;;;;;3.85;2.92;;;19.20;54.80;;;;;;5094319;28;20465;-75
2023/06/08 08:01:31;;;;;;;5.32;3.55;;;19.20;54.50;;;;;;5078381;28;20032;-75
2023/06/08 08:03:57;;;;;;;5.40;3.65;;;19.20;54.70;;;;;;5077623;28;20028;-75
2023/06/08 08:06:22;;;;;;;5.47;3.67;;;19.20;54.70;;;;;;5044912;28;20069;-75
2023/06/08 08:08:48;;;;;;;4.55;3.45;;;19.30;54.70;;;;;;5094405;28;20036;-76
2023/06/08 08:11:14;;;;;;;4.70;3.17;;;19.30;54.70;;;;;;5094600;28;20078;-76
2023/06/08 08:13:40;;;;;;;3.97;3.30;;;19.30;54.70;;;;;;5094664;28;20380;-75
2023/06/08 08:16:06;;;;;;;5.90;3.35;;;19.40;54.70;;;;;;5077754;28;20028;-77
2023/06/08 08:18:31;;;;;;;4.97;3.70;;;19.40;54.80;;;;;;5095432;28;20509;-76
2023/06/08 08:20:57;;;;;;;4.95;3.25;;;19.40;54.60;;;;;;5095484;28;20445;-76
2023/06/08 08:23:23;;;;;;;5.25;3.33;;;19.40;54.50;;;;;;5094044;28;20036;-76
2023/06/08 08:25:49;;;;;;;4.50;3.20;;;19.50;54.60;;;;;;5077089;28;20123;-75
2023/06/08 08:28:14;;;;;;;5.40;3.15;;;19.50;54.60;;;;;;5094363;28;20035;-76
2023/06/08 08:30:40;;;;;;;4.35;3.17;;;19.50;54.50;;;;;;5094689;28;20054;-75
2023/06/08 08:33:06;;;;;;;5.22;3.63;;;19.60;54.50;;;;;;5077050;28;20036;-76
2023/06/08 08:35:34;;;;;;;5.10;3.70;;;19.60;54.50;;;;;;5094542;28;20032;-75
2023/06/08 08:38:00;;;;;;;5.78;3.58;;;19.60;54.50;;;;;;5093339;28;20035;-75
2023/06/08 08:40:26;;;;;;;4.18;2.97;;;19.60;54.50;;;;;;5093865;28;20380;-75
2023/06/08 08:43:16;;;;;;;4.40;3.30;;;19.70;54.50;;;;;;5093876;28;20036;-76
2023/06/08 08:45:45;;;;;;;4.07;2.92;;;19.70;54.60;;;;;;5093504;28;20063;-76
2023/06/08 08:48:13;;;;;;;4.95;3.58;;;19.70;54.40;;;;;;5093763;28;20032;-76
2023/06/08 08:50:40;;;;;;;4.63;3.20;;;19.80;54.50;;;;;;5076813;28;20050;-76
2023/06/08 08:53:06;;;;;;;4.40;2.88;;;19.70;54.40;;;;;;5075964;28;20032;-76
2023/06/08 08:55:36;;;;;;;4.40;3.15;;;19.80;54.40;;;;;;5093580;28;20020;-76
2023/06/08 08:58:03;;;;;;;5.13;3.33;;;19.80;54.50;;;;;;5076469;28;20036;-75
2023/06/08 09:00:33;;;;;;;5.07;3.33;;;19.90;54.40;;;;;;5093791;28;20043;-75
2023/06/08 09:03:00;;;;;;;3.97;2.95;;;19.90;54.40;;;;;;5095427;28;20032;-76
2023/06/08 09:05:26;;;;;;;4.97;3.33;;;20.00;55.10;;;;;;5093141;28;20465;-75
2023/06/08 09:07:55;;;;;;;4.82;3.05;;;20.00;54.40;;;;;;5076408;28;20153;-76
2023/06/08 09:10:25;;;;;;;4.93;3.13;;;20.00;54.40;;;;;;5077002;28;20044;-75
2023/06/08 09:12:53;;;;;;;5.38;3.15;;;20.00;54.30;;;;;;5094486;28;20020;-76
2023/06/08 09:15:31;;;;;;;4.80;3.40;;;20.10;54.40;;;;;;5093793;28;20056;-76
2023/06/08 09:18:02;;;;;;;3.47;2.67;;;20.10;54.30;;;;;;5094346;28;20058;-75
2023/06/08 09:20:31;;;;;;;4.28;3.17;;;20.10;54.30;;;;;;5093496;28;20055;-75
2023/06/08 09:22:57;;;;;;;4.40;2.80;;;20.20;54.30;;;;;;5060403;28;20028;-75
2023/06/08 09:25:37;;;;;;;4.47;2.90;;;20.20;54.30;;;;;;5094754;28;20028;-75
2023/06/08 09:28:16;;;;;;;5.00;3.22;;;20.20;54.30;;;;;;5076228;28;20108;-75
2023/06/08 09:30:43;;;;;;;5.45;3.03;;;20.30;54.30;;;;;;5092730;28;20028;-77
2023/06/08 09:33:20;;;;;;;4.03;2.75;;;20.30;54.30;;;;;;5092996;28;20530;-75
2023/06/08 09:36:07;;;;;;;4.03;2.85;;;20.30;54.30;;;;;;5059210;28;20044;-73
2023/06/08 09:38:34;;;;;;;4.90;2.97;;;20.30;54.20;;;;;;5093162;28;20074;-77
2023/06/08 09:41:21;;;;;;;4.45;2.88;;;20.40;54.20;;;;;;5092567;28;20039;-77
2023/06/08 09:43:50;;;;;;;5.70;2.83;;;20.50;54.30;;;;;;5093576;28;20067;-76
2023/06/08 09:46:41;;;;;;;4.20;2.95;;;20.50;54.20;;;;;;5093370;28;20035;-77
2023/06/08 09:49:07;;;;;;;4.38;2.97;;;20.60;54.20;;;;;;5093441;28;20032;-76
2023/06/08 09:51:37;;;;;;;4.07;2.92;;;20.60;54.00;;;;;;5092108;28;20032;-77
2023/06/08 09:54:04;;;;;;;4.50;2.92;;;20.70;54.00;;;;;;5092202;28;20024;-76
2023/06/08 09:56:31;;;;;;;4.47;2.97;;;20.80;53.90;;;;;;5093278;28;20107;-77
2023/06/08 09:59:01;;;;;;;4.93;2.85;;;20.90;53.90;;;;;;5092204;28;20115;-77
2023/06/08 10:01:27;;;;;;;3.92;2.90;;;21.00;53.90;;;;;;5075699;28;20045;-76
2023/06/08 10:03:57;;;;;;;4.57;2.70;;;21.10;53.90;;;;;;5092867;28;20028;-76
2023/06/08 10:06:25;;;;;;;3.95;2.95;;;21.10;53.80;;;;;;5092031;28;20047;-77
2023/06/08 10:08:53;;;;;;;4.00;2.75;;;21.20;53.80;;;;;;5093742;28;20032;-77
2023/06/08 10:11:21;;;;;;;4.57;3.22;;;21.30;53.70;;;;;;5075676;28;20032;-77
2023/06/08 10:13:47;;;;;;;3.75;2.80;;;21.40;53.70;;;;;;5092282;28;20028;-78
2023/06/08 10:16:13;;;;;;;4.82;2.85;;;21.60;53.80;;;;;;5092236;28;20043;-78
2023/06/08 10:18:40;;;;;;;4.30;2.80;;;21.60;53.70;;;;;;5076121;28;20044;-77
2023/06/08 10:21:07;;;;;;;4.30;3.05;;;21.70;53.80;;;;;;5093276;28;20016;-77
2023/06/08 10:23:33;;;;;;;4.90;2.72;;;21.80;53.80;;;;;;5093905;28;20470;-77
2023/06/08 10:26:00;;;;;;;4.70;2.92;;;21.90;53.70;;;;;;5092102;28;20475;-80
2023/06/08 10:28:26;;;;;;;5.10;3.28;;;22.00;53.80;;;;;;5075805;28;20039;-78
2023/06/08 10:30:51;;;;;;;4.57;2.67;;;22.10;53.80;;;;;;5092237;28;20032;-78
2023/06/08 10:33:20;;;;;;;4.35;2.97;;;22.20;53.80;;;;;;5058597;28;20056;-77
2023/06/08 10:36:09;;;;;;;4.10;2.85;;;22.30;53.80;;;;;;5075155;28;20062;-76
2023/06/08 10:38:56;;;;;;;3.13;2.45;;;22.40;53.80;;;;;;5074839;28;20050;-76
2023/06/08 10:41:53;;;;;;;4.75;2.58;;;22.60;53.60;;;;;;5075382;28;20111;-77
2023/06/08 10:44:31;;;;;;;3.83;2.80;;;22.70;53.60;;;;;;5091526;28;20036;-76
2023/06/08 10:47:04;;;;;;;4.22;2.97;;;22.80;53.40;;;;;;5091783;28;20063;-76
2023/06/08 10:49:31;;;;;;;3.47;2.38;;;22.80;53.30;;;;;;5092854;28;20555;-77
2023/06/08 10:51:58;;;;;;;3.78;2.60;;;23.00;53.30;;;;;;5075013;28;20016;-75
2023/06/08 10:54:25;;;;;;;4.25;2.50;;;23.00;53.40;;;;;;5075260;28;20384;-76
2023/06/08 10:56:54;;;;;;;3.92;2.78;;;23.10;53.40;;;;;;5074918;28;20088;-76
2023/06/08 10:59:37;;;;;;;4.53;3.00;;;23.20;53.40;;;;;;5091500;28;20484;-78
2023/06/08 11:02:04;;;;;;;4.05;2.45;;;23.30;53.40;;;;;;5092685;28;20128;-77
2023/06/08 11:04:31;;;;;;;3.38;2.35;;;23.40;53.40;;;;;;5091644;28;20081;-77
2023/06/08 11:07:01;;;;;;;3.80;2.25;;;23.50;53.40;;;;;;5092677;28;20028;-77
2023/06/08 11:09:36;;;;;;;3.42;2.40;;;23.50;53.50;;;;;;5074811;28;20036;-77
2023/06/08 11:12:03;;;;;;;3.15;2.40;;;23.60;53.50;;;;;;5093197;28;20164;-76
2023/06/08 11:14:29;;;;;;;3.65;2.50;;;23.60;53.40;;;;;;5091729;28;20032;-75
2023/06/08 11:16:58;;;;;;;4.47;2.60;;;23.70;53.50;;;;;;5095129;28;20047;-75
2023/06/08 11:19:24;;;;;;;3.47;2.35;;;23.80;53.50;;;;;;5096739;28;20028;-75
2023/06/08 11:21:53;;;;;;;3.92;2.63;;;23.80;53.60;;;;;;5095111;28;20036;-75
2023/06/08 11:24:20;;;;;;;3.97;2.53;;;23.90;53.70;;;;;;5079030;28;20380;-75
2023/06/08 11:26:46;;;;;;;2.88;2.35;;;23.90;53.60;;;;;;5078347;28;20028;-75
2023/06/08 11:29:13;;;;;;;4.60;2.60;;;24.00;53.70;;;;;;5096678;28;20123;-75
2023/06/08 11:31:42;;;;;;;3.67;2.40;;;24.00;53.70;;;;;;5095158;28;20043;-75
2023/06/08 11:34:12;;;;;;;5.28;2.50;;;24.10;53.80;;;;;;5096050;28;20036;-75
2023/06/08 11:36:44;;;;;;;3.38;2.08;;;24.10;53.80;;;;;;5095040;28;20036;-75
2023/06/08 11:39:12;;;;;;;3.70;2.35;;;24.20;53.90;;;;;;5095419;28;20134;-75
2023/06/08 11:41:46;;;;;;;4.45;2.08;;;24.20;53.90;;;;;;5079219;28;20033;-75
2023/06/08 11:44:14;;;;;;;3.22;2.08;;;24.20;54.00;;;;;;5078004;28;20028;-75
2023/06/08 11:46:40;;;;;;;3.03;2.30;;;24.30;54.00;;;;;;5078023;28;20059;-75
2023/06/08 11:49:09;;;;;;;3.25;2.35;;;24.30;54.00;;;;;;5096402;28;20480;-75
2023/06/08 11:51:46;;;;;;;3.58;2.33;;;24.40;54.10;;;;;;5077891;28;20043;-75
2023/06/08 11:54:13;;;;;;;3.20;2.40;;;24.40;54.20;;;;;;5078120;28;20024;-75
2023/06/08 11:56:39;;;;;;;3.80;2.45;;;24.40;54.20;;;;;;5094719;28;20115;-75
2023/06/08 11:59:05;;;;;;;3.95;2.38;;;24.50;54.20;;;;;;5095345;28;20040;-75
2023/06/08 12:01:31;;;;;;;3.00;2.40;;;24.50;54.20;;;;;;5078044;28;20063;-75
2023/06/08 12:03:57;;;;;;;4.15;2.75;;;24.50;54.30;;;;;;5096129;28;20064;-74
2023/06/08 12:06:26;;;;;;;3.60;2.60;;;24.60;54.30;;;;;;5094571;28;20115;-75
2023/06/08 12:08:54;;;;;;;3.45;2.38;;;24.60;54.30;;;;;;5095696;28;20054;-75
2023/06/08 12:11:21;;;;;;;3.92;2.80;;;24.60;54.20;;;;;;5094345;28;20032;-75
2023/06/08 12:13:47;;;;;;;2.92;2.30;;;24.60;54.30;;;;;;5095628;28;20036;-75
2023/06/08 12:16:13;;;;;;;3.55;2.38;;;24.70;54.30;;;;;;5095741;28;20421;-75
2023/06/08 12:18:42;;;;;;;2.95;2.33;;;24.70;54.30;;;;;;5095475;28;20032;-75
2023/06/08 12:21:14;;;;;;;3.90;2.38;;;24.70;54.30;;;;;;5093995;28;20487;-75
2023/06/08 12:23:40;;;;;;;3.42;2.17;;;24.80;54.30;;;;;;5094855;28;20042;-74
2023/06/08 12:26:06;;;;;;;4.22;2.53;;;24.80;54.20;;;;;;5094411;28;20354;-75
2023/06/08 12:28:32;;;;;;;3.70;2.42;;;24.80;54.20;;;;;;5076269;28;20099;-75
2023/06/08 12:31:00;;;;;;;3.90;2.53;;;24.80;54.10;;;;;;5093923;28;20036;-75
2023/06/08 12:33:26;;;;;;;4.28;2.60;;;24.80;54.00;;;;;;5094286;28;20082;-75
2023/06/08 12:35:54;;;;;;;3.38;2.30;;;24.90;54.00;;;;;;5077862;28;20457;-74
2023/06/08 12:38:20;;;;;;;4.03;2.58;;;24.90;53.90;;;;;;5093741;28;20089;-74
2023/06/08 12:40:48;;;;;;;4.30;2.75;;;24.90;53.80;;;;;;5094133;28;20032;-74
2023/06/08 12:43:18;;;;;;;4.30;2.45;;;25.00;53.80;;;;;;5094678;28;20086;-75
2023/06/08 12:45:45;;;;;;;3.35;2.35;;;25.00;53.70;;;;;;5077279;28;20025;-75
2023/06/08 12:48:11;;;;;;;2.72;2.28;;;25.00;53.60;;;;;;5076836;28;20036;-75
2023/06/08 12:50:38;;;;;;;3.70;2.60;;;25.10;53.90;;;;;;5093421;28;20028;-75
2023/06/08 12:53:04;;;;;;;3.35;2.40;;;25.10;53.50;;;;;;5093628;28;20028;-75